Aeroporto :
LOGIN :

Iscrizione | Disclaimer

   EN    FR    IT 

 










Sommario :    VFR   VFR Marginale   IFR   IFR Intensivo   IFR Molto Intensivo
Visibilità : 
Base nubi : 
>= 8 km
>= 3000ft
5 / 8 km
1000 / 3000 ft
1500m / 5 km
500 / 1000 ft
800 / 1500m
200 / 500 ft
< 800m
< 200 ft
Simboli :   Temporali  Nebbia  Neve Forte  Precipitazioni Forti  Vento > 20 kt
SIGMETs :   Varie  Temporali  Ghiacco  Turbolenza  Onda orograficha  Ceneri Vulcaniche







- Altitudine del aeroporto : 17 ft
- Codice IATA : MPL
- Carte del aeroporto


LFMT - Montpellier Méditerranée

ULTIMO METAR :
  • 190800Z AUTO 34010KT 320V030 CAVOK 11/00 Q1022 BECMG 36015G25KT

METARs OBSOLETI :
  • 190730Z AUTO 31007KT CAVOK 10/00 Q1022 BECMG 36015G25KT
  • 190700Z AUTO 32004KT 280V360 CAVOK 09/01 Q1022 BECMG 36015G25KT
  • 190630Z AUTO VRB02KT CAVOK 08/01 Q1022 BECMG 36015G25KT
  • 190600Z AUTO 32004KT 310V020 CAVOK 06/M00 Q1022 BECMG 36015G25KT
  • 190530Z AUTO 31010KT CAVOK 08/M00 Q1021 BECMG 36015G25KT

TAF TAF LFMT
Valido dal 19 a 03 ore il 20 a 03 ore UTC


190200Z 1903/2003 31015KT CAVOK
BECMG 1906/1908 36015G25KT
BECMG 1914/1915 03010KT
ATIS : +33 4 67 13 11 70
Nessun NOTAM noto per questo aeroporto.



MetMap, La meteo Aeronautica in un colpo d'occhio ! - Copyright ORBIFLY Dicembre 2007 - Disclaimer

ORBIFLY MET'MAP TEAM :

Programmazione e sviluppo : Alexandra Zaïnal
Concezione e sviluppo : Baudouin d'Aumeries
Co-Programmazione e sviluppo : Marc-Olivier Méhu
Supporto tecnico e logistico : Manuel Goepfert
Aiuto per la traduzione : Arnaldo La Scala

Contatto : metmap@orbifly.com




FONTI E CREDITI :

   NOAA